Time;durP1;ratioP1;P1;durP2;ratioP2;P2;SDS_P1;SDS_P2;PMS_P1;PMS_P2;Temp;Humidity;BMP_temperature;BMP_pressure;BME280_temperature;BME280_humidity;BME280_pressure;Samples;Min_cycle;Max_cycle;Signal;HPM_P1;HPM_P2
2022/10/31 00:02:17;;;;;;;3.90;1.50;;;13.80;98.00;;;;;;5079361;28;20020;-79
2022/10/31 00:04:43;;;;;;;5.53;1.60;;;13.80;98.10;;;;;;5078289;28;20120;-79
2022/10/31 00:07:09;;;;;;;6.15;1.70;;;13.80;98.00;;;;;;5079507;28;20025;-77
2022/10/31 00:09:34;;;;;;;4.65;1.75;;;13.80;98.00;;;;;;5079379;28;20039;-78
2022/10/31 00:12:00;;;;;;;4.65;1.65;;;13.80;98.00;;;;;;5079582;28;20033;-78
2022/10/31 00:14:26;;;;;;;3.10;1.38;;;13.80;97.90;;;;;;5083578;28;20046;-78
2022/10/31 00:16:51;;;;;;;3.97;1.45;;;13.80;97.90;;;;;;5086423;28;20076;-78
2022/10/31 00:19:17;;;;;;;4.57;1.40;;;13.80;98.00;;;;;;5079163;28;20029;-78
2022/10/31 00:21:43;;;;;;;4.45;1.50;;;13.70;97.90;;;;;;5079157;28;20024;-78
2022/10/31 00:24:08;;;;;;;6.53;1.50;;;13.70;98.10;;;;;;5079241;28;20024;-78
2022/10/31 00:26:34;;;;;;;4.43;1.50;;;13.70;98.10;;;;;;5079145;28;20036;-78
2022/10/31 00:29:00;;;;;;;2.95;1.30;;;13.70;98.20;;;;;;5078977;28;20020;-78
2022/10/31 00:31:26;;;;;;;3.30;1.17;;;13.70;98.20;;;;;;5077873;28;20024;-78
2022/10/31 00:33:51;;;;;;;3.25;1.20;;;13.70;98.20;;;;;;5078723;28;20070;-78
2022/10/31 00:36:19;;;;;;;4.80;1.50;;;13.70;98.20;;;;;;5078823;28;20025;-78
2022/10/31 00:38:46;;;;;;;3.20;1.48;;;13.70;98.40;;;;;;5077663;28;20016;-78
2022/10/31 00:41:13;;;;;;;5.95;1.50;;;13.70;98.10;;;;;;5077811;28;20484;-78
2022/10/31 00:43:38;;;;;;;5.63;1.63;;;13.70;98.10;;;;;;5078584;28;20100;-77
2022/10/31 00:46:04;;;;;;;4.22;1.58;;;13.60;97.90;;;;;;5077357;28;20048;-78
2022/10/31 00:48:30;;;;;;;8.65;1.42;;;13.70;98.20;;;;;;5077327;28;20064;-78
2022/10/31 00:50:56;;;;;;;4.40;1.48;;;13.70;98.30;;;;;;5077586;28;20079;-78
2022/10/31 00:53:21;;;;;;;3.38;1.40;;;13.70;98.40;;;;;;5077332;28;20477;-78
2022/10/31 00:55:47;;;;;;;3.88;1.17;;;13.70;98.20;;;;;;5078542;28;20078;-78
2022/10/31 00:58:13;;;;;;;6.25;1.58;;;13.70;98.40;;;;;;5077787;28;20024;-78
2022/10/31 01:00:38;;;;;;;4.80;1.40;;;13.70;98.40;;;;;;5077237;28;20051;-78
2022/10/31 01:03:04;;;;;;;4.72;1.30;;;13.70;98.40;;;;;;5077961;28;20013;-78
2022/10/31 01:05:30;;;;;;;4.32;1.38;;;13.80;98.60;;;;;;5078292;28;20481;-78
2022/10/31 01:07:56;;;;;;;4.95;1.40;;;13.70;98.50;;;;;;5078138;28;20473;-78
2022/10/31 01:10:22;;;;;;;4.18;1.60;;;13.70;98.40;;;;;;5078327;28;20055;-78
2022/10/31 01:12:49;;;;;;;4.90;1.40;;;13.70;98.40;;;;;;5078124;28;20024;-78
2022/10/31 01:15:19;;;;;;;4.70;1.50;;;13.70;98.50;;;;;;5089393;28;20066;-78
2022/10/31 01:17:44;;;;;;;2.90;1.65;;;13.70;98.40;;;;;;5077785;28;20055;-78
2022/10/31 01:20:12;;;;;;;4.40;1.70;;;13.70;98.50;;;;;;5078169;28;20397;-78
2022/10/31 01:22:38;;;;;;;5.53;1.50;;;13.70;98.60;;;;;;5077061;28;20020;-77
2022/10/31 01:25:04;;;;;;;4.72;1.60;;;13.70;98.50;;;;;;5078087;28;20025;-78
2022/10/31 01:27:31;;;;;;;3.65;1.33;;;13.70;98.60;;;;;;5076612;28;20031;-78
2022/10/31 01:29:56;;;;;;;3.63;1.60;;;13.70;98.70;;;;;;5077890;28;20031;-78
2022/10/31 01:32:22;;;;;;;5.35;1.60;;;13.80;98.60;;;;;;5077437;28;20396;-78
2022/10/31 01:34:48;;;;;;;4.65;1.63;;;13.70;98.20;;;;;;5077838;28;20024;-78
2022/10/31 01:37:13;;;;;;;4.50;1.58;;;13.70;98.50;;;;;;5077624;28;20029;-77
2022/10/31 01:39:39;;;;;;;2.65;1.50;;;13.70;98.40;;;;;;5077763;28;20032;-78
2022/10/31 01:42:04;;;;;;;2.97;2.00;;;13.60;98.40;;;;;;5077726;28;20024;-78
2022/10/31 01:44:30;;;;;;;3.13;1.70;;;13.60;98.50;;;;;;5077751;28;20033;-78
2022/10/31 01:47:01;;;;;;;4.10;1.50;;;13.60;98.50;;;;;;5077229;28;20025;-78
2022/10/31 01:49:36;;;;;;;5.72;1.80;;;13.60;98.60;;;;;;5077732;28;20025;-78
2022/10/31 01:52:16;;;;;;;3.22;1.63;;;13.60;98.60;;;;;;5076057;28;20070;-78
2022/10/31 01:54:47;;;;;;;3.50;1.73;;;13.60;98.70;;;;;;5077517;28;20050;-78
2022/10/31 01:57:14;;;;;;;4.55;1.63;;;13.60;98.60;;;;;;5076763;28;20032;-78
2022/10/31 01:59:46;;;;;;;4.45;2.03;;;13.60;98.70;;;;;;5077447;28;20399;-78
2022/10/31 02:02:14;;;;;;;7.30;2.30;;;13.60;98.80;;;;;;5077299;28;20460;-78
2022/10/31 02:04:40;;;;;;;3.28;1.50;;;13.60;99.00;;;;;;5077235;28;20031;-78
2022/10/31 02:07:14;;;;;;;3.42;1.92;;;13.60;98.80;;;;;;5076371;28;20561;-78
2022/10/31 02:09:40;;;;;;;3.47;1.85;;;13.60;98.90;;;;;;5077347;28;20374;-78
2022/10/31 02:12:08;;;;;;;2.72;1.80;;;13.60;99.40;;;;;;5077301;28;20028;-78
2022/10/31 02:14:36;;;;;;;2.30;1.77;;;13.60;98.80;;;;;;5082964;28;20028;-78
2022/10/31 02:17:01;;;;;;;3.88;1.80;;;13.50;99.00;;;;;;5081781;28;20072;-78
2022/10/31 02:19:42;;;;;;;2.60;1.80;;;13.50;99.30;;;;;;5077423;28;20032;-78
2022/10/31 02:22:36;;;;;;;3.88;1.80;;;13.60;99.10;;;;;;5076186;28;20020;-78
2022/10/31 02:25:28;;;;;;;2.25;1.40;;;13.60;99.30;;;;;;5046609;28;20547;-78
2022/10/31 02:28:13;;;;;;;1.90;1.60;;;13.60;99.40;;;;;;5066253;28;20450;-78
2022/10/31 02:31:08;;;;;;;2.50;1.83;;;13.60;99.20;;;;;;5076986;28;20036;-78
2022/10/31 02:33:50;;;;;;;2.58;1.70;;;13.60;99.40;;;;;;5076824;28;20021;-78
2022/10/31 02:36:48;;;;;;;2.03;1.50;;;13.60;99.10;;;;;;5077163;28;20056;-78
2022/10/31 02:39:23;;;;;;;1.73;1.40;;;13.60;99.10;;;;;;5060803;28;20480;-78
2022/10/31 02:41:48;;;;;;;2.88;1.58;;;13.60;99.50;;;;;;5077014;28;20021;-78
2022/10/31 02:44:29;;;;;;;2.75;1.40;;;13.60;99.50;;;;;;5077124;28;20472;-78
2022/10/31 02:47:05;;;;;;;3.10;1.10;;;13.60;99.30;;;;;;5076643;28;20111;-78
2022/10/31 02:49:48;;;;;;;2.78;1.10;;;13.60;99.30;;;;;;5076870;28;20031;-78
2022/10/31 02:52:21;;;;;;;1.55;1.15;;;13.50;99.30;;;;;;5075930;28;20051;-78
2022/10/31 02:54:48;;;;;;;1.63;1.23;;;13.50;99.60;;;;;;5075744;28;20032;-78
2022/10/31 02:57:15;;;;;;;1.65;1.30;;;13.50;99.60;;;;;;5076200;28;20024;-78
2022/10/31 02:59:47;;;;;;;2.83;1.30;;;13.50;99.70;;;;;;5075354;28;20025;-78
2022/10/31 03:02:30;;;;;;;2.13;1.13;;;13.50;99.50;;;;;;5076627;28;20044;-78
2022/10/31 03:05:19;;;;;;;1.25;1.15;;;13.40;99.60;;;;;;5076807;28;20099;-78
2022/10/31 03:07:58;;;;;;;1.77;1.30;;;13.40;99.80;;;;;;5076710;28;20032;-78
2022/10/31 03:10:51;;;;;;;2.70;1.20;;;13.40;99.90;;;;;;5075764;28;20024;-78
2022/10/31 03:13:44;;;;;;;4.23;1.30;;;13.40;99.90;;;;;;5076878;28;20498;-78
2022/10/31 03:16:32;;;;;;;1.75;1.00;;;13.40;99.90;;;;;;5088235;28;20102;-77
2022/10/31 03:19:04;;;;;;;1.05;0.90;;;13.40;99.80;;;;;;5076923;28;20078;-78
2022/10/31 03:21:33;;;;;;;1.63;0.90;;;13.50;99.90;;;;;;5075368;28;20092;-78
2022/10/31 03:24:01;;;;;;;2.45;1.10;;;13.50;99.90;;;;;;5075230;28;20104;-78
2022/10/31 03:26:27;;;;;;;1.40;0.95;;;13.50;99.90;;;;;;5075644;28;20385;-77
2022/10/31 03:28:59;;;;;;;1.13;0.90;;;13.50;99.90;;;;;;5077008;28;20016;-77
2022/10/31 03:31:30;;;;;;;1.33;0.93;;;13.50;99.90;;;;;;5080053;28;20028;-77
2022/10/31 03:33:59;;;;;;;1.55;0.90;;;13.50;99.90;;;;;;5078711;28;20049;-77
2022/10/31 03:36:28;;;;;;;1.45;0.75;;;13.50;99.90;;;;;;5080085;28;20031;-78
2022/10/31 03:38:55;;;;;;;1.63;0.80;;;13.50;99.90;;;;;;5080100;28;20097;-77
2022/10/31 03:41:27;;;;;;;1.10;0.90;;;13.50;99.90;;;;;;5078673;28;20115;-78
2022/10/31 03:43:58;;;;;;;1.80;0.70;;;13.50;99.90;;;;;;5080081;28;20032;-77
2022/10/31 03:46:24;;;;;;;1.00;0.70;;;13.50;99.90;;;;;;5079383;28;20024;-77
2022/10/31 03:48:50;;;;;;;0.88;0.80;;;13.50;99.90;;;;;;5079760;28;20059;-78
2022/10/31 03:51:30;;;;;;;0.90;0.80;;;13.50;99.90;;;;;;5078459;28;20024;-78
2022/10/31 03:54:08;;;;;;;0.90;0.70;;;13.50;99.90;;;;;;5079744;28;20028;-78
2022/10/31 03:56:40;;;;;;;0.73;0.60;;;13.50;99.90;;;;;;5078685;28;20016;-77
2022/10/31 03:59:13;;;;;;;1.00;0.70;;;13.50;99.90;;;;;;5079858;28;20070;-77
2022/10/31 04:01:41;;;;;;;;;;;13.50;99.90;;;;;;5079806;28;20477;-78
2022/10/31 04:04:07;;;;;;;1.55;0.60;;;13.40;99.70;;;;;;5079493;28;19919;-77
2022/10/31 04:06:35;;;;;;;1.00;0.68;;;13.40;99.90;;;;;;5079573;28;20107;-78
2022/10/31 04:09:05;;;;;;;0.95;0.63;;;13.40;99.90;;;;;;5078378;28;20073;-77
2022/10/31 04:11:39;;;;;;;0.90;0.65;;;13.40;99.90;;;;;;5078273;28;20067;-78
2022/10/31 04:14:06;;;;;;;1.30;0.80;;;13.40;99.90;;;;;;5080841;28;20500;-78
2022/10/31 04:16:32;;;;;;;1.58;0.70;;;13.40;99.90;;;;;;5090082;28;20043;-78
2022/10/31 04:18:58;;;;;;;1.42;0.80;;;13.50;99.90;;;;;;5079236;28;20385;-77
2022/10/31 04:21:29;;;;;;;0.70;0.60;;;13.40;99.90;;;;;;5079325;28;20432;-78
2022/10/31 04:23:55;;;;;;;1.65;0.70;;;13.40;99.90;;;;;;5079119;28;20027;-78
2022/10/31 04:26:21;;;;;;;0.98;0.70;;;13.40;99.90;;;;;;5078132;28;20028;-78
2022/10/31 04:28:47;;;;;;;1.10;0.80;;;13.40;99.90;;;;;;5079052;28;20047;-77
2022/10/31 04:31:13;;;;;;;0.65;0.52;;;13.40;99.90;;;;;;5077978;28;20025;-78
2022/10/31 04:33:38;;;;;;;0.68;0.60;;;13.40;99.90;;;;;;5078778;28;20032;-78
2022/10/31 04:36:07;;;;;;;0.70;0.65;;;13.40;99.90;;;;;;5079123;28;20039;-77
2022/10/31 04:38:32;;;;;;;1.10;0.70;;;13.40;99.90;;;;;;5078705;28;20074;-77
2022/10/31 04:40:59;;;;;;;1.00;0.60;;;13.40;99.90;;;;;;5078598;28;20024;-78
2022/10/31 04:43:25;;;;;;;0.50;0.50;;;13.40;99.90;;;;;;5078738;28;20051;-78
2022/10/31 04:45:50;;;;;;;0.73;0.60;;;13.40;99.90;;;;;;5078820;28;20024;-78
2022/10/31 04:48:16;;;;;;;1.10;0.70;;;13.40;99.90;;;;;;5077391;28;20052;-78
2022/10/31 04:50:42;;;;;;;2.55;0.68;;;13.40;99.90;;;;;;5077623;28;20553;-78
2022/10/31 04:53:08;;;;;;;1.50;0.70;;;13.30;99.90;;;;;;5078571;28;20032;-78
2022/10/31 04:55:35;;;;;;;1.77;0.68;;;13.40;99.90;;;;;;5078591;28;20032;-78
2022/10/31 04:58:01;;;;;;;1.02;0.70;;;13.40;99.90;;;;;;5076628;28;20034;-78
2022/10/31 05:00:27;;;;;;;2.35;0.70;;;13.40;99.90;;;;;;5078541;28;20107;-77
2022/10/31 05:02:55;;;;;;;0.80;0.55;;;13.40;99.90;;;;;;5078184;28;20031;-77
2022/10/31 05:05:24;;;;;;;2.60;0.73;;;13.40;99.90;;;;;;5077076;28;20107;-77
2022/10/31 05:07:51;;;;;;;1.73;0.82;;;13.40;99.90;;;;;;5078272;28;20112;-77
2022/10/31 05:10:19;;;;;;;1.10;0.85;;;13.40;99.90;;;;;;5078371;28;20423;-78
2022/10/31 05:12:49;;;;;;;1.75;0.70;;;13.40;99.90;;;;;;5077017;28;20028;-78
2022/10/31 05:15:15;;;;;;;0.73;0.70;;;13.30;99.90;;;;;;5088280;28;20024;-77
2022/10/31 05:17:40;;;;;;;1.65;0.90;;;13.30;99.90;;;;;;5076914;28;20136;-77
2022/10/31 05:20:06;;;;;;;2.63;0.70;;;13.30;99.90;;;;;;5076988;28;20052;-78
2022/10/31 05:22:32;;;;;;;2.08;0.90;;;13.30;99.90;;;;;;5077974;28;20024;-78
2022/10/31 05:24:58;;;;;;;2.30;0.95;;;13.30;99.90;;;;;;5078055;28;20028;-78
2022/10/31 05:27:23;;;;;;;1.70;0.70;;;13.30;99.90;;;;;;5077923;28;20032;-78
2022/10/31 05:29:49;;;;;;;1.20;1.00;;;13.30;99.90;;;;;;5077796;28;20032;-78
2022/10/31 05:32:14;;;;;;;2.85;0.98;;;13.30;99.90;;;;;;5077664;28;20035;-77
2022/10/31 05:34:40;;;;;;;0.82;0.77;;;13.30;99.90;;;;;;5077817;28;20086;-78
2022/10/31 05:37:06;;;;;;;1.65;0.90;;;13.30;99.90;;;;;;5078013;28;20024;-77
2022/10/31 05:39:31;;;;;;;1.10;0.82;;;13.30;99.90;;;;;;5077649;28;20031;-78
2022/10/31 05:41:57;;;;;;;1.70;1.20;;;13.40;99.90;;;;;;5077866;28;20012;-77
2022/10/31 05:44:23;;;;;;;1.30;1.00;;;13.40;99.90;;;;;;5077915;28;20021;-77
2022/10/31 05:46:48;;;;;;;2.08;1.08;;;13.40;99.90;;;;;;5077524;28;20028;-78
2022/10/31 05:49:14;;;;;;;2.38;1.13;;;13.40;99.90;;;;;;5077543;28;20025;-78
2022/10/31 05:51:39;;;;;;;2.33;1.00;;;13.50;99.90;;;;;;5076147;28;20456;-78
2022/10/31 05:54:05;;;;;;;1.90;1.40;;;13.50;99.90;;;;;;5077317;28;20556;-77
2022/10/31 05:56:31;;;;;;;1.35;1.05;;;13.50;99.90;;;;;;5076789;28;20029;-78
2022/10/31 05:58:56;;;;;;;2.03;1.40;;;13.50;99.90;;;;;;5076523;28;20388;-78
2022/10/31 06:01:22;;;;;;;2.15;1.35;;;13.50;99.90;;;;;;5076964;28;20024;-78
2022/10/31 06:03:47;;;;;;;2.47;1.27;;;13.50;99.90;;;;;;5076066;28;20150;-77
2022/10/31 06:06:13;;;;;;;2.28;1.30;;;13.50;99.90;;;;;;5077344;28;20021;-77
2022/10/31 06:08:39;;;;;;;1.60;1.13;;;13.60;99.90;;;;;;5077454;28;20400;-77
2022/10/31 06:11:05;;;;;;;1.15;1.00;;;13.50;99.90;;;;;;5077232;28;20103;-78
2022/10/31 06:13:31;;;;;;;1.77;1.20;;;13.50;99.90;;;;;;5076540;28;20090;-78
2022/10/31 06:15:56;;;;;;;1.08;0.98;;;13.60;99.90;;;;;;5088982;28;20029;-77
2022/10/31 06:18:22;;;;;;;1.50;1.10;;;13.60;99.90;;;;;;5077005;28;20071;-78
2022/10/31 06:20:47;;;;;;;1.80;1.20;;;13.50;99.90;;;;;;5077247;28;20024;-78
2022/10/31 06:23:13;;;;;;;2.10;1.10;;;13.50;99.90;;;;;;5076158;28;20028;-77
2022/10/31 06:25:39;;;;;;;1.45;1.00;;;13.50;99.90;;;;;;5077128;28;20074;-78
2022/10/31 06:28:05;;;;;;;1.30;1.10;;;13.60;99.90;;;;;;5077222;28;20025;-78
2022/10/31 06:30:30;;;;;;;1.55;1.10;;;13.60;99.90;;;;;;5077075;28;20032;-78
2022/10/31 06:33:04;;;;;;;1.30;1.08;;;13.60;99.90;;;;;;5076875;28;20064;-78
2022/10/31 06:35:31;;;;;;;1.67;1.10;;;13.60;99.90;;;;;;5075959;28;20089;-78
2022/10/31 06:37:56;;;;;;;1.50;1.10;;;13.60;99.90;;;;;;5076820;28;20103;-77
2022/10/31 06:40:22;;;;;;;2.50;1.30;;;13.60;99.90;;;;;;5077035;28;20098;-78
2022/10/31 06:42:56;;;;;;;2.80;1.00;;;13.50;99.90;;;;;;5077062;28;20021;-78
2022/10/31 06:45:22;;;;;;;1.50;1.20;;;13.60;99.90;;;;;;5076997;28;20012;-78
2022/10/31 06:47:53;;;;;;;1.90;1.20;;;13.60;99.90;;;;;;5076571;28;20082;-78
2022/10/31 06:50:19;;;;;;;2.90;1.30;;;13.60;99.90;;;;;;5076495;28;20025;-77
2022/10/31 06:52:51;;;;;;;1.85;1.10;;;13.60;99.90;;;;;;5075986;28;20067;-80
2022/10/31 06:55:16;;;;;;;2.25;1.20;;;13.60;99.90;;;;;;5075696;28;20024;-78
2022/10/31 06:57:42;;;;;;;1.20;0.93;;;13.60;99.90;;;;;;5076027;28;20021;-77
2022/10/31 07:00:08;;;;;;;2.55;1.33;;;13.60;99.90;;;;;;5076779;28;20032;-80
2022/10/31 07:02:34;;;;;;;2.60;1.30;;;13.60;99.90;;;;;;5076425;28;20024;-77
2022/10/31 07:04:59;;;;;;;1.05;0.90;;;13.70;99.90;;;;;;5079149;28;20397;-77
2022/10/31 07:07:25;;;;;;;3.17;1.10;;;13.70;99.90;;;;;;5080578;28;20024;-77
2022/10/31 07:09:51;;;;;;;1.60;1.20;;;13.70;99.90;;;;;;5080649;28;20033;-79
2022/10/31 07:12:16;;;;;;;3.15;1.35;;;13.70;99.90;;;;;;5080544;28;20020;-80
2022/10/31 07:14:42;;;;;;;1.60;1.20;;;13.70;99.90;;;;;;5085748;28;20073;-78
2022/10/31 07:17:07;;;;;;;1.73;1.33;;;13.70;99.90;;;;;;5084579;28;20048;-78
2022/10/31 07:19:33;;;;;;;2.28;1.20;;;13.70;99.90;;;;;;5080479;28;20016;-78
2022/10/31 07:21:59;;;;;;;1.58;1.25;;;13.70;99.90;;;;;;5080368;28;20021;-78
2022/10/31 07:24:24;;;;;;;1.95;1.30;;;13.70;99.90;;;;;;5080367;28;20025;-78
2022/10/31 07:26:50;;;;;;;1.90;1.30;;;13.70;99.90;;;;;;5078884;28;20390;-78
2022/10/31 07:29:16;;;;;;;2.30;1.20;;;13.70;99.90;;;;;;5080526;28;20028;-78
2022/10/31 07:31:41;;;;;;;1.65;1.40;;;13.80;99.90;;;;;;5078788;28;20407;-78
2022/10/31 07:34:07;;;;;;;3.55;1.20;;;13.80;99.90;;;;;;5080331;28;20026;-78
2022/10/31 07:36:32;;;;;;;1.80;1.40;;;13.80;99.90;;;;;;5078700;28;20020;-78
2022/10/31 07:38:58;;;;;;;1.73;1.60;;;13.90;99.90;;;;;;5080083;28;20020;-79
2022/10/31 07:41:24;;;;;;;2.83;1.50;;;13.90;99.90;;;;;;5078763;28;20062;-79
2022/10/31 07:43:50;;;;;;;3.75;1.52;;;13.90;99.90;;;;;;5080196;28;20044;-79
2022/10/31 07:46:15;;;;;;;2.40;1.70;;;13.90;99.90;;;;;;5079512;28;20400;-79
2022/10/31 07:48:41;;;;;;;2.35;1.30;;;13.90;99.90;;;;;;5078834;28;20462;-78
2022/10/31 07:51:06;;;;;;;2.03;1.20;;;13.90;99.90;;;;;;5079762;28;20444;-78
2022/10/31 07:53:32;;;;;;;2.53;1.30;;;13.90;99.90;;;;;;5079970;28;20431;-79
2022/10/31 07:55:58;;;;;;;1.70;1.20;;;13.90;99.90;;;;;;5079033;28;20463;-79
2022/10/31 07:58:24;;;;;;;1.48;1.20;;;14.00;99.90;;;;;;5078685;28;20029;-78
2022/10/31 08:00:50;;;;;;;1.63;1.17;;;14.00;99.90;;;;;;5079478;28;20028;-79
2022/10/31 08:03:18;;;;;;;2.58;1.20;;;14.00;99.90;;;;;;5078125;28;20033;-79
2022/10/31 08:05:45;;;;;;;3.58;1.30;;;14.10;99.90;;;;;;5078784;28;20065;-79
2022/10/31 08:08:12;;;;;;;3.47;1.15;;;14.10;99.90;;;;;;5077212;28;20519;-79
2022/10/31 08:10:38;;;;;;;3.08;1.20;;;14.20;99.90;;;;;;5078737;28;20103;-79
2022/10/31 08:13:05;;;;;;;2.70;1.25;;;14.20;99.90;;;;;;5087486;28;20035;-79
2022/10/31 08:15:33;;;;;;;3.53;1.45;;;14.20;99.90;;;;;;5086013;28;20405;-79
2022/10/31 08:18:00;;;;;;;3.03;1.50;;;14.30;99.90;;;;;;5083350;28;20558;-78
2022/10/31 08:20:25;;;;;;;3.03;1.80;;;14.40;99.90;;;;;;5087821;28;20012;-79
2022/10/31 08:22:55;;;;;;;1.98;1.20;;;14.40;99.90;;;;;;5083098;28;20032;-78
2022/10/31 08:25:21;;;;;;;3.88;1.60;;;14.40;99.90;;;;;;5076307;28;20028;-78
2022/10/31 08:27:53;;;;;;;3.20;1.65;;;14.40;99.90;;;;;;5084744;28;20043;-79
2022/10/31 08:30:20;;;;;;;1.85;1.42;;;14.40;99.90;;;;;;5078971;28;20457;-79
2022/10/31 08:32:47;;;;;;;1.80;1.40;;;14.40;99.90;;;;;;5077621;28;20419;-80
2022/10/31 08:35:13;;;;;;;2.38;1.40;;;14.40;99.90;;;;;;5076582;28;20477;-79
2022/10/31 08:37:39;;;;;;;4.53;1.60;;;14.40;99.90;;;;;;5078464;28;20024;-79
2022/10/31 08:40:06;;;;;;;3.05;1.60;;;14.40;99.90;;;;;;5077579;28;20477;-79
2022/10/31 08:42:32;;;;;;;1.92;1.40;;;14.40;99.90;;;;;;5078913;28;20020;-79
2022/10/31 08:44:57;;;;;;;2.85;1.33;;;14.40;99.90;;;;;;5077583;28;20028;-79
2022/10/31 08:47:23;;;;;;;4.88;1.58;;;14.40;99.90;;;;;;5078474;28;20370;-79
2022/10/31 08:49:49;;;;;;;1.85;1.25;;;14.50;99.90;;;;;;5078646;28;20488;-79
2022/10/31 08:52:15;;;;;;;3.08;1.50;;;14.50;99.90;;;;;;5078370;28;20534;-79
2022/10/31 08:54:41;;;;;;;2.22;1.55;;;14.50;99.90;;;;;;5077238;28;20032;-80
2022/10/31 08:57:07;;;;;;;4.30;1.52;;;14.50;99.90;;;;;;5077366;28;20154;-80
2022/10/31 08:59:32;;;;;;;3.70;1.25;;;14.50;99.90;;;;;;5077214;28;20021;-79
2022/10/31 09:01:58;;;;;;;2.13;1.30;;;14.50;99.90;;;;;;5077829;28;20147;-80
2022/10/31 09:04:23;;;;;;;2.13;1.30;;;14.50;99.90;;;;;;5077588;28;20054;-79
2022/10/31 09:06:49;;;;;;;2.38;1.20;;;14.50;99.90;;;;;;5077835;28;20060;-79
2022/10/31 09:09:15;;;;;;;5.18;1.42;;;14.50;99.90;;;;;;5078229;28;20032;-79
2022/10/31 09:11:40;;;;;;;2.50;1.50;;;14.60;99.90;;;;;;5077408;28;20088;-79
2022/10/31 09:14:06;;;;;;;2.60;1.50;;;14.60;99.90;;;;;;5078788;28;20055;-79
2022/10/31 09:16:31;;;;;;;2.15;1.40;;;14.60;99.90;;;;;;5087030;28;20076;-67
2022/10/31 09:18:57;;;;;;;3.55;1.48;;;14.60;99.90;;;;;;5075743;28;20025;-68
2022/10/31 09:21:23;;;;;;;2.20;1.42;;;14.70;99.90;;;;;;5076425;28;20020;-67
2022/10/31 09:23:48;;;;;;;2.10;1.30;;;14.70;99.90;;;;;;5075510;28;20032;-67
2022/10/31 09:26:14;;;;;;;1.98;1.20;;;14.70;99.90;;;;;;5075112;28;20028;-68
2022/10/31 09:28:39;;;;;;;6.10;1.40;;;14.70;99.90;;;;;;5074989;28;20016;-69
2022/10/31 09:31:05;;;;;;;3.20;1.50;;;14.70;99.90;;;;;;5076527;28;20100;-75
2022/10/31 09:33:31;;;;;;;2.25;1.48;;;14.70;99.90;;;;;;5077129;28;20024;-74
2022/10/31 09:35:58;;;;;;;2.67;1.50;;;14.70;99.90;;;;;;5075880;28;20028;-72
2022/10/31 09:38:24;;;;;;;4.43;1.55;;;14.80;99.90;;;;;;5077352;28;20037;-71
2022/10/31 09:41:19;;;;;;;4.25;1.85;;;14.80;99.90;;;;;;5076694;28;20493;-72
2022/10/31 09:44:08;;;;;;;4.53;2.60;;;14.80;99.90;;;;;;5076960;28;20017;-70
2022/10/31 09:46:54;;;;;;;4.90;2.15;;;14.80;99.90;;;;;;5077057;28;20080;-72
2022/10/31 09:49:57;;;;;;;5.03;2.42;;;14.80;99.90;;;;;;5076278;28;20149;-70
2022/10/31 09:52:27;;;;;;;2.75;2.10;;;14.80;99.90;;;;;;5077046;28;20051;-70
2022/10/31 09:54:58;;;;;;;4.93;2.13;;;14.70;99.90;;;;;;5077286;28;20099;-70
2022/10/31 09:57:35;;;;;;;3.58;2.33;;;14.70;99.90;;;;;;5076595;28;20038;-70
2022/10/31 10:00:04;;;;;;;3.90;2.40;;;14.80;99.90;;;;;;5077366;28;20017;-70
2022/10/31 10:02:46;;;;;;;3.20;2.40;;;14.80;99.90;;;;;;5077063;28;20043;-71
2022/10/31 10:05:17;;;;;;;3.67;2.50;;;14.90;99.90;;;;;;5076585;28;20029;-72
2022/10/31 10:08:08;;;;;;;5.32;2.88;;;14.90;99.90;;;;;;5076816;28;20105;-71
2022/10/31 10:10:58;;;;;;;5.13;2.85;;;14.90;99.90;;;;;;5076722;28;20025;-70
2022/10/31 10:13:45;;;;;;;4.47;3.20;;;15.00;99.90;;;;;;5074875;28;20031;-72
2022/10/31 10:16:50;;;;;;;5.32;2.80;;;15.10;99.90;;;;;;5087222;28;20101;-71
2022/10/31 10:19:31;;;;;;;4.57;3.20;;;15.30;99.90;;;;;;5076791;28;20040;-71
2022/10/31 10:22:20;;;;;;;5.35;2.75;;;15.30;99.90;;;;;;5075617;28;20029;-71
2022/10/31 10:25:01;;;;;;;5.85;3.70;;;15.30;99.90;;;;;;5075567;28;20586;-70
2022/10/31 10:27:51;;;;;;;7.18;2.97;;;15.40;99.90;;;;;;5074152;28;20028;-68
2022/10/31 10:30:41;;;;;;;5.47;3.22;;;15.30;99.90;;;;;;5074426;28;20070;-69
2022/10/31 10:33:13;;;;;;;7.22;3.28;;;15.40;99.90;;;;;;5074373;28;20032;-69
2022/10/31 10:35:54;;;;;;;5.72;3.25;;;15.40;99.90;;;;;;5063989;28;20016;-69
2022/10/31 10:38:42;;;;;;;5.18;3.47;;;15.50;99.90;;;;;;5076809;28;20029;-69
2022/10/31 10:41:33;;;;;;;4.47;3.08;;;15.60;99.90;;;;;;5078504;28;20024;-69
2022/10/31 10:43:59;;;;;;;6.38;3.30;;;15.80;99.90;;;;;;5073144;28;20024;-69
2022/10/31 10:49:29;;;;;;;5.63;3.22;;;15.90;99.90;;;;;;5080170;28;20039;-69
2022/10/31 10:52:11;;;;;;;6.82;3.65;;;15.90;99.90;;;;;;5071815;28;20017;-69
2022/10/31 10:54:45;;;;;;;6.07;3.60;;;16.00;99.90;;;;;;5079513;28;20055;-69
2022/10/31 10:57:21;;;;;;;5.28;3.35;;;16.10;99.90;;;;;;5080052;28;20054;-69
2022/10/31 10:59:47;;;;;;;4.43;3.58;;;16.20;99.90;;;;;;5080095;28;20393;-69
2022/10/31 11:02:18;;;;;;;6.82;3.72;;;16.10;99.90;;;;;;5079748;28;20013;-69
2022/10/31 11:04:47;;;;;;;5.57;3.50;;;16.10;99.90;;;;;;5079088;28;20029;-69
2022/10/31 11:07:13;;;;;;;6.38;3.70;;;16.00;99.90;;;;;;5078151;28;20036;-70
2022/10/31 11:09:38;;;;;;;5.47;3.88;;;16.10;99.90;;;;;;5078652;28;20028;-70
2022/10/31 11:12:19;;;;;;;8.60;4.50;;;16.10;99.90;;;;;;5077726;28;20051;-69
2022/10/31 11:14:55;;;;;;;6.70;3.95;;;16.10;99.90;;;;;;5085440;28;20062;-70
2022/10/31 11:17:34;;;;;;;7.72;4.00;;;16.10;99.90;;;;;;5083674;28;20036;-72
2022/10/31 11:20:31;;;;;;;5.75;3.72;;;16.20;99.90;;;;;;5077436;28;20093;-72
2022/10/31 11:23:25;;;;;;;5.50;3.72;;;16.30;99.90;;;;;;5076054;28;20024;-72
2022/10/31 11:26:20;;;;;;;8.20;4.53;;;16.20;99.90;;;;;;5076848;28;20086;-72
2022/10/31 11:28:59;;;;;;;6.00;4.28;;;16.20;99.90;;;;;;5078835;28;20045;-72
2022/10/31 11:31:26;;;;;;;6.07;4.20;;;16.30;99.90;;;;;;5077678;28;20035;-73
2022/10/31 11:34:07;;;;;;;8.10;4.20;;;16.40;99.90;;;;;;5079969;28;20056;-72
2022/10/31 11:36:36;;;;;;;6.32;4.47;;;16.40;99.90;;;;;;5079493;28;20506;-72
2022/10/31 11:39:04;;;;;;;5.70;4.10;;;16.40;99.90;;;;;;5079146;28;20162;-72
2022/10/31 11:41:31;;;;;;;8.25;4.43;;;16.40;99.90;;;;;;5077583;28;20017;-72
2022/10/31 11:43:58;;;;;;;8.90;5.07;;;16.30;99.90;;;;;;5079346;28;20369;-70
2022/10/31 11:46:37;;;;;;;6.72;4.85;;;16.20;99.90;;;;;;5077768;28;20096;-71
2022/10/31 11:49:05;;;;;;;7.55;4.68;;;16.20;99.90;;;;;;5079132;28;20107;-71
2022/10/31 11:51:34;;;;;;;6.85;4.55;;;16.10;99.90;;;;;;5075238;28;20036;-73
2022/10/31 11:54:02;;;;;;;9.88;4.95;;;16.10;99.90;;;;;;5079108;28;20017;-72
2022/10/31 11:56:37;;;;;;;7.63;4.90;;;16.10;99.90;;;;;;5078976;28;20016;-72
2022/10/31 11:59:05;;;;;;;10.02;4.85;;;16.10;99.90;;;;;;5076948;28;20071;-71
2022/10/31 12:01:32;;;;;;;6.88;4.95;;;16.10;99.90;;;;;;5079255;28;20021;-72
2022/10/31 12:04:09;;;;;;;8.02;5.00;;;16.10;99.90;;;;;;5079447;28;20017;-71
2022/10/31 12:06:40;;;;;;;8.52;5.35;;;16.10;99.90;;;;;;5079003;28;20025;-70
2022/10/31 12:09:26;;;;;;;8.75;5.22;;;16.10;99.90;;;;;;5079417;28;20028;-69
2022/10/31 12:12:11;;;;;;;11.25;5.65;;;16.20;99.90;;;;;;5078769;28;20118;-69
2022/10/31 12:15:14;;;;;;;10.15;4.95;;;16.20;99.90;;;;;;5080601;28;20032;-76
2022/10/31 12:17:54;;;;;;;8.13;5.25;;;16.30;99.90;;;;;;5077798;28;20044;-70
2022/10/31 12:20:38;;;;;;;10.23;5.68;;;16.30;99.90;;;;;;5079323;28;20496;-70
2022/10/31 12:23:10;;;;;;;6.78;5.18;;;16.30;99.90;;;;;;5079329;28;20028;-71
2022/10/31 12:25:51;;;;;;;8.30;5.47;;;16.30;99.90;;;;;;5078859;28;20028;-72
2022/10/31 12:28:28;;;;;;;8.35;5.18;;;16.30;99.90;;;;;;5078821;28;20115;-71
2022/10/31 12:31:19;;;;;;;8.88;5.47;;;16.30;99.90;;;;;;5066492;28;20024;-70
2022/10/31 12:34:12;;;;;;;9.43;5.55;;;16.40;99.90;;;;;;5078884;28;20024;-71
2022/10/31 12:36:56;;;;;;;;;;;16.40;99.90;;;;;;5078754;28;20027;-70
2022/10/31 12:39:32;;;;;;;;;;;16.40;99.90;;;;;;5079192;28;19955;-69
2022/10/31 12:41:58;;;;;;;7.53;5.25;;;16.50;99.90;;;;;;5077830;28;19960;-70
2022/10/31 12:44:48;;;;;;;9.80;5.40;;;16.50;99.90;;;;;;5078538;28;20457;-70
2022/10/31 12:47:39;;;;;;;8.52;5.18;;;16.60;99.90;;;;;;5078448;28;20497;-67
2022/10/31 12:50:31;;;;;;;9.48;5.57;;;16.60;99.90;;;;;;5078375;28;20427;-69
2022/10/31 12:53:19;;;;;;;10.27;5.53;;;16.70;99.90;;;;;;5076443;28;20031;-67
2022/10/31 12:56:29;;;;;;;9.82;5.85;;;16.80;99.90;;;;;;5070478;28;20392;-69
2022/10/31 12:59:39;;;;;;;8.43;5.50;;;16.90;99.90;;;;;;5064189;28;20044;-69
2022/10/31 13:02:32;;;;;;;8.48;5.18;;;16.90;99.90;;;;;;5035383;28;20025;-69
2022/10/31 13:05:16;;;;;;;9.30;5.45;;;17.00;99.90;;;;;;5073298;28;20035;-69
2022/10/31 13:07:48;;;;;;;10.70;5.40;;;17.00;99.90;;;;;;5076203;28;20024;-70
2022/10/31 13:10:22;;;;;;;12.60;6.50;;;17.10;99.90;;;;;;5076399;28;20095;-69
2022/10/31 13:12:57;;;;;;;11.00;5.65;;;17.10;99.90;;;;;;5075600;28;20028;-69